createdAt,value
2019-03-11T00:00:08.299Z,68.00
2019-03-11T00:01:14.399Z,68.20
2019-03-11T00:02:18.950Z,68.20
2019-03-11T00:03:23.523Z,68.20
2019-03-11T00:04:28.132Z,68.30
2019-03-11T00:05:32.635Z,68.20
2019-03-11T00:06:37.104Z,68.30
2019-03-11T00:07:41.647Z,68.20
2019-03-11T00:08:46.123Z,68.10
2019-03-11T00:09:50.600Z,68.20
2019-03-11T00:10:55.085Z,68.00
2019-03-11T00:11:59.542Z,67.90
2019-03-11T00:13:04.073Z,67.60
2019-03-11T00:14:08.565Z,67.80
2019-03-11T00:15:13.099Z,67.80
2019-03-11T00:16:17.644Z,67.90
2019-03-11T00:17:22.116Z,67.70
2019-03-11T00:18:26.639Z,67.70
2019-03-11T00:19:31.196Z,67.60
2019-03-11T00:20:35.673Z,67.60
2019-03-11T00:21:40.172Z,67.40
2019-03-11T00:22:44.831Z,67.50
2019-03-11T00:23:49.312Z,67.50
2019-03-11T00:24:53.793Z,67.70
2019-03-11T00:25:58.287Z,67.70
2019-03-11T00:27:03.019Z,67.50
2019-03-11T00:28:07.575Z,67.40
2019-03-11T00:29:12.052Z,68.30
2019-03-11T00:30:16.517Z,67.40
2019-03-11T00:31:20.984Z,67.30
2019-03-11T00:32:25.510Z,67.40
2019-03-11T00:33:30.016Z,67.30
2019-03-11T00:34:34.500Z,67.40
2019-03-11T00:35:39.049Z,67.30
2019-03-11T00:36:43.739Z,67.20
2019-03-11T00:37:48.198Z,67.10
2019-03-11T00:38:52.678Z,66.90
2019-03-11T00:39:57.223Z,67.10
2019-03-11T00:41:01.688Z,66.90
2019-03-11T00:42:06.215Z,67.00
2019-03-11T00:43:10.730Z,66.90
2019-03-11T00:44:15.236Z,67.00
2019-03-11T00:45:19.747Z,67.10
2019-03-11T00:46:24.268Z,67.10
2019-03-11T00:47:28.927Z,67.20
2019-03-11T00:48:33.407Z,67.10
2019-03-11T00:49:37.886Z,67.30
2019-03-11T00:50:42.503Z,67.10
2019-03-11T00:51:47.080Z,67.30
2019-03-11T00:52:51.574Z,67.30
2019-03-11T00:53:56.044Z,67.40
2019-03-11T00:55:00.502Z,67.40
2019-03-11T00:56:05.150Z,67.40
2019-03-11T00:57:09.611Z,67.10
2019-03-11T00:58:14.230Z,67.10
2019-03-11T00:59:18.704Z,67.20
2019-03-11T01:00:37.986Z,67.00
2019-03-11T01:01:42.543Z,67.60
2019-03-11T01:02:46.998Z,66.40
2019-03-11T01:03:51.461Z,66.30
2019-03-11T01:04:56.019Z,65.70
2019-03-11T01:06:00.473Z,65.60
2019-03-11T01:07:04.956Z,65.70
2019-03-11T01:08:09.440Z,65.80
2019-03-11T01:09:13.966Z,65.30
2019-03-11T01:10:18.439Z,65.40
2019-03-11T01:11:22.908Z,65.60
2019-03-11T01:12:27.470Z,65.30
2019-03-11T01:13:32.186Z,64.60
2019-03-11T01:14:36.665Z,64.50
2019-03-11T01:15:41.124Z,64.10
2019-03-11T01:16:45.654Z,64.00
2019-03-11T01:17:50.153Z,64.20
2019-03-11T01:18:54.617Z,63.60
2019-03-11T01:19:59.104Z,63.60
2019-03-11T01:21:03.707Z,63.60
2019-03-11T01:22:08.247Z,63.20
2019-03-11T01:23:12.751Z,63.10
2019-03-11T01:24:17.550Z,63.20
2019-03-11T01:25:22.022Z,62.40
2019-03-11T01:26:26.484Z,62.20
2019-03-11T01:27:30.966Z,62.20
2019-03-11T01:28:35.446Z,61.30
2019-03-11T01:29:40.198Z,61.70
2019-03-11T01:30:44.692Z,61.60
2019-03-11T01:31:49.160Z,62.10
2019-03-11T01:32:53.641Z,61.80
2019-03-11T01:33:58.166Z,61.90
2019-03-11T01:35:02.994Z,61.20
2019-03-11T01:36:07.512Z,62.00
2019-03-11T01:37:11.977Z,62.00
2019-03-11T01:38:16.466Z,61.70
2019-03-11T01:39:20.939Z,61.90
2019-03-11T01:40:25.416Z,61.60
2019-03-11T01:41:30.115Z,60.90
2019-03-11T01:42:34.565Z,61.40
2019-03-11T01:43:39.107Z,59.70
2019-03-11T01:44:43.629Z,60.50
2019-03-11T01:45:48.131Z,60.20
2019-03-11T01:46:52.654Z,60.30
2019-03-11T01:47:57.314Z,60.60
2019-03-11T01:49:01.875Z,60.70
2019-03-11T01:50:08.028Z,59.90
2019-03-11T01:51:12.490Z,60.60
2019-03-11T01:52:17.041Z,60.70
2019-03-11T01:53:21.578Z,60.30
2019-03-11T01:54:26.053Z,60.40
2019-03-11T01:55:30.773Z,60.20
2019-03-11T01:56:35.305Z,59.80
2019-03-11T01:57:39.776Z,59.90
2019-03-11T01:58:44.250Z,59.50
2019-03-11T01:59:48.780Z,59.30
2019-03-11T02:00:53.333Z,59.80
2019-03-11T02:01:57.807Z,59.00
2019-03-11T02:03:02.320Z,59.50
2019-03-11T02:04:06.974Z,60.10
2019-03-11T02:05:11.602Z,60.00
2019-03-11T02:06:16.324Z,59.70
2019-03-11T02:07:20.884Z,60.30
2019-03-11T02:08:25.344Z,60.40
2019-03-11T02:09:30.041Z,60.60
2019-03-11T02:10:34.783Z,60.40
2019-03-11T02:11:39.325Z,60.50
2019-03-11T02:12:43.853Z,60.20
2019-03-11T02:13:48.308Z,60.50
2019-03-11T02:14:52.843Z,60.40
2019-03-11T02:15:57.325Z,60.00
2019-03-11T02:17:01.893Z,60.60
2019-03-11T02:18:06.361Z,60.20
2019-03-11T02:19:10.827Z,60.70
2019-03-11T02:20:19.243Z,60.80
2019-03-11T02:21:23.879Z,60.10
2019-03-11T02:22:28.357Z,59.80
2019-03-11T02:23:32.822Z,59.90
2019-03-11T02:24:37.338Z,60.40
2019-03-11T02:25:41.902Z,60.70
2019-03-11T02:26:46.439Z,59.80
2019-03-11T02:27:50.937Z,60.30
2019-03-11T02:28:55.412Z,60.40
2019-03-11T02:29:59.953Z,60.00
2019-03-11T02:31:04.427Z,59.70
2019-03-11T02:32:08.950Z,60.40
2019-03-11T02:33:13.480Z,60.20
2019-03-11T02:34:17.956Z,60.50
2019-03-11T02:35:27.699Z,60.50
2019-03-11T02:36:32.184Z,60.20
2019-03-11T02:37:36.793Z,60.40
2019-03-11T02:38:41.406Z,60.40
2019-03-11T02:39:46.036Z,60.40
2019-03-11T02:40:50.983Z,60.60
2019-03-11T02:41:55.551Z,60.80
2019-03-11T02:43:00.180Z,60.90
2019-03-11T02:44:04.877Z,60.70
2019-03-11T02:45:10.519Z,60.80
2019-03-11T02:46:15.052Z,60.90
2019-03-11T02:47:19.507Z,60.50
2019-03-11T02:48:23.978Z,60.80
2019-03-11T02:49:29.166Z,60.40
2019-03-11T02:50:33.625Z,60.70
2019-03-11T02:51:38.146Z,60.80
2019-03-11T02:52:42.622Z,60.40
2019-03-11T02:53:47.120Z,60.10
2019-03-11T02:54:51.777Z,59.60
2019-03-11T02:55:56.247Z,60.10
2019-03-11T02:57:00.723Z,60.40
2019-03-11T02:58:05.239Z,60.70
2019-03-11T02:59:09.811Z,60.70
2019-03-11T03:00:18.539Z,60.80
2019-03-11T03:01:41.051Z,60.80
2019-03-11T03:02:50.298Z,60.70
2019-03-11T03:03:56.543Z,60.50
2019-03-11T03:05:02.639Z,60.70
2019-03-11T03:06:08.768Z,60.80
2019-03-11T03:07:13.266Z,61.00
2019-03-11T03:08:17.771Z,60.80
2019-03-11T03:09:22.255Z,60.90
2019-03-11T03:10:26.796Z,60.80
2019-03-11T03:11:31.262Z,60.80
2019-03-11T03:12:35.819Z,60.60
2019-03-11T03:13:40.298Z,59.40
2019-03-11T03:14:44.809Z,60.50
2019-03-11T03:15:49.276Z,60.20
2019-03-11T03:16:53.886Z,60.50
2019-03-11T03:17:58.411Z,60.50
2019-03-11T03:19:02.886Z,59.90
2019-03-11T03:20:10.467Z,60.10
2019-03-11T03:21:14.982Z,60.30
2019-03-11T03:22:19.459Z,60.60
2019-03-11T03:23:23.962Z,60.80
2019-03-11T03:24:28.420Z,60.70
2019-03-11T03:25:34.900Z,60.40
2019-03-11T03:26:39.072Z,60.50
2019-03-11T03:27:43.701Z,60.80
2019-03-11T03:28:48.369Z,60.70
2019-03-11T03:29:52.930Z,60.70
2019-03-11T03:30:57.394Z,60.80
2019-03-11T03:32:01.879Z,60.90
2019-03-11T03:33:06.471Z,60.80
2019-03-11T03:34:11.162Z,60.80
2019-03-11T03:35:15.702Z,60.40
2019-03-11T03:36:20.162Z,60.80
2019-03-11T03:37:24.630Z,60.80
2019-03-11T03:38:31.173Z,60.90
2019-03-11T03:39:35.280Z,60.50
2019-03-11T03:40:39.754Z,60.60
2019-03-11T03:41:44.424Z,60.80
2019-03-11T03:42:49.306Z,60.20
2019-03-11T03:43:54.076Z,60.30
2019-03-11T03:45:21.363Z,60.10
2019-03-11T03:46:25.879Z,60.10
2019-03-11T03:47:30.344Z,60.60
2019-03-11T03:48:34.897Z,60.50
2019-03-11T03:49:39.567Z,60.60
2019-03-11T03:50:44.054Z,60.60
2019-03-11T03:51:48.580Z,60.00
2019-03-11T03:52:53.089Z,59.80
2019-03-11T03:53:57.575Z,60.10
2019-03-11T03:55:02.063Z,60.00
2019-03-11T03:56:06.769Z,60.00
2019-03-11T03:57:11.289Z,59.90
2019-03-11T03:58:15.770Z,60.10
2019-03-11T03:59:20.411Z,59.70
2019-03-11T04:00:24.930Z,59.80
2019-03-11T04:01:29.440Z,60.10
2019-03-11T04:02:33.918Z,59.40
2019-03-11T04:03:38.449Z,59.30
2019-03-11T04:04:43.009Z,59.50
2019-03-11T04:05:47.729Z,60.00
2019-03-11T04:06:52.198Z,59.70
2019-03-11T04:07:56.661Z,59.70
2019-03-11T04:09:01.175Z,60.10
2019-03-11T04:10:10.992Z,60.00
2019-03-11T04:11:15.493Z,60.00
2019-03-11T04:12:19.956Z,59.60
2019-03-11T04:13:24.500Z,59.60
2019-03-11T04:14:28.966Z,59.50
2019-03-11T04:15:33.575Z,59.60
2019-03-11T04:16:38.205Z,59.40
2019-03-11T04:17:43.138Z,59.60
2019-03-11T04:18:55.292Z,59.50
2019-03-11T04:19:59.861Z,59.60
2019-03-11T04:21:04.562Z,59.30
2019-03-11T04:22:09.158Z,59.40
2019-03-11T04:23:13.771Z,59.10
2019-03-11T04:24:18.230Z,59.10
2019-03-11T04:25:23.013Z,59.50
2019-03-11T04:26:28.569Z,59.30
2019-03-11T04:27:33.107Z,59.90
2019-03-11T04:28:37.658Z,60.00
2019-03-11T04:29:42.134Z,59.30
2019-03-11T04:30:46.647Z,59.50
2019-03-11T04:31:51.174Z,59.80
2019-03-11T04:32:55.664Z,59.60
2019-03-11T04:34:00.352Z,59.60
2019-03-11T04:35:06.349Z,60.00
2019-03-11T04:36:10.913Z,60.80
2019-03-11T04:37:15.416Z,59.90
2019-03-11T04:38:19.932Z,59.80
2019-03-11T04:39:24.431Z,59.90
2019-03-11T04:40:29.073Z,61.00
2019-03-11T04:41:33.647Z,59.80
2019-03-11T04:42:38.108Z,60.30
2019-03-11T04:43:42.806Z,60.40
2019-03-11T04:44:47.262Z,60.60
2019-03-11T04:45:51.745Z,60.10
2019-03-11T04:46:56.349Z,60.50
2019-03-11T04:48:00.867Z,60.30
2019-03-11T04:49:05.352Z,60.30
2019-03-11T04:50:12.812Z,61.10
2019-03-11T04:51:17.486Z,60.40
2019-03-11T04:52:21.961Z,60.80
2019-03-11T04:53:26.492Z,60.80
2019-03-11T04:54:30.999Z,61.00
2019-03-11T04:55:35.476Z,60.80
2019-03-11T04:56:39.940Z,61.20
2019-03-11T04:57:55.546Z,61.40
2019-03-11T04:59:09.052Z,61.50
2019-03-11T05:00:18.988Z,61.70
2019-03-11T05:01:23.675Z,61.50
2019-03-11T05:02:28.166Z,61.50
2019-03-11T05:03:32.638Z,61.70
2019-03-11T05:04:37.096Z,62.10
2019-03-11T05:05:41.617Z,61.70
2019-03-11T05:06:46.177Z,61.30
2019-03-11T05:07:50.698Z,61.60
2019-03-11T05:08:55.177Z,61.90
2019-03-11T05:09:59.640Z,62.10
2019-03-11T05:11:04.184Z,61.40
2019-03-11T05:12:08.684Z,61.40
2019-03-11T05:13:13.335Z,61.20
2019-03-11T05:14:18.041Z,61.20
2019-03-11T05:15:22.514Z,61.60
2019-03-11T05:16:27.021Z,61.80
2019-03-11T05:17:31.570Z,61.10
2019-03-11T05:18:36.389Z,60.80
2019-03-11T05:19:41.499Z,60.50
2019-03-11T05:20:45.974Z,60.70
2019-03-11T05:21:50.479Z,60.10
2019-03-11T05:22:55.160Z,60.40
2019-03-11T05:23:59.777Z,60.50
2019-03-11T05:25:05.906Z,60.40
2019-03-11T05:26:10.394Z,60.40
2019-03-11T05:27:14.893Z,60.10
2019-03-11T05:28:19.422Z,60.10
2019-03-11T05:29:23.896Z,60.20
2019-03-11T05:30:28.363Z,59.90
2019-03-11T05:31:32.822Z,59.70
2019-03-11T05:32:38.238Z,59.50
2019-03-11T05:33:42.732Z,59.10
2019-03-11T05:34:47.461Z,59.20
2019-03-11T05:35:51.942Z,58.90
2019-03-11T05:36:56.737Z,59.10
2019-03-11T05:38:01.211Z,58.70
2019-03-11T05:39:07.043Z,58.90
2019-03-11T05:40:19.254Z,59.20
2019-03-11T05:41:23.707Z,59.00
2019-03-11T05:42:28.280Z,58.50
2019-03-11T05:43:32.769Z,58.90
2019-03-11T05:44:37.269Z,58.30
2019-03-11T05:45:41.753Z,58.00
2019-03-11T05:46:46.308Z,58.40
2019-03-11T05:47:50.813Z,58.00
2019-03-11T05:48:55.304Z,58.30
2019-03-11T05:49:59.742Z,57.80
2019-03-11T05:51:04.221Z,57.80
2019-03-11T05:52:08.674Z,58.00
2019-03-11T05:53:13.215Z,57.60
2019-03-11T05:54:17.836Z,58.00
2019-03-11T05:55:22.510Z,58.30
2019-03-11T05:56:26.993Z,57.70
2019-03-11T05:57:31.456Z,57.50
2019-03-11T05:58:35.920Z,57.20
2019-03-11T05:59:40.454Z,57.20
2019-03-11T06:00:45.077Z,57.30
2019-03-11T06:01:49.759Z,56.50
2019-03-11T06:02:54.428Z,56.80
2019-03-11T06:03:58.891Z,56.50
2019-03-11T06:05:03.383Z,57.30
2019-03-11T06:06:07.838Z,56.90
2019-03-11T06:07:12.335Z,57.00
2019-03-11T06:08:22.374Z,57.00
2019-03-11T06:09:26.883Z,57.00
2019-03-11T06:10:31.426Z,56.90
2019-03-11T06:11:35.916Z,56.70
2019-03-11T06:12:40.562Z,56.20
2019-03-11T06:13:45.041Z,56.90
2019-03-11T06:14:49.596Z,56.70
2019-03-11T06:15:54.919Z,56.70
2019-03-11T06:16:59.374Z,56.00
2019-03-11T06:18:04.240Z,55.30
2019-03-11T06:19:08.726Z,56.50
2019-03-11T06:20:26.050Z,56.70
2019-03-11T06:21:38.138Z,55.80
2019-03-11T06:22:42.623Z,55.90
2019-03-11T06:23:47.090Z,56.20
2019-03-11T06:24:51.569Z,56.50
2019-03-11T06:25:56.045Z,56.70
2019-03-11T06:27:00.600Z,56.80
2019-03-11T06:28:05.136Z,56.60
2019-03-11T06:29:09.626Z,56.60
2019-03-11T06:30:14.237Z,56.40
2019-03-11T06:31:18.718Z,56.20
2019-03-11T06:32:23.190Z,56.30
2019-03-11T06:33:27.630Z,56.30
2019-03-11T06:34:32.097Z,55.80
2019-03-11T06:35:36.580Z,56.10
2019-03-11T06:36:41.132Z,56.70
2019-03-11T06:37:45.600Z,56.30
2019-03-11T06:38:50.082Z,56.80
2019-03-11T06:39:54.551Z,56.60
2019-03-11T06:40:59.007Z,56.30
2019-03-11T06:42:03.563Z,56.50
2019-03-11T06:43:08.049Z,55.20
2019-03-11T06:44:12.542Z,55.70
2019-03-11T06:45:17.307Z,56.00
2019-03-11T06:46:22.002Z,55.20
2019-03-11T06:47:26.649Z,55.20
2019-03-11T06:48:31.126Z,55.30
2019-03-11T06:49:35.590Z,55.50
2019-03-11T06:50:40.062Z,55.70
2019-03-11T06:51:44.559Z,56.40
2019-03-11T06:52:49.041Z,56.50
2019-03-11T06:53:53.518Z,56.50
2019-03-11T06:54:58.081Z,56.60
2019-03-11T06:56:02.693Z,56.70
2019-03-11T06:57:07.164Z,56.40
2019-03-11T06:58:11.642Z,56.70
2019-03-11T06:59:16.108Z,57.00
2019-03-11T07:00:21.628Z,57.50
2019-03-11T07:01:26.215Z,57.90
2019-03-11T07:02:30.695Z,58.10
2019-03-11T07:03:36.510Z,58.30
2019-03-11T07:04:41.018Z,58.80
2019-03-11T07:05:45.498Z,59.50
2019-03-11T07:06:50.039Z,59.80
2019-03-11T07:07:54.531Z,60.40
2019-03-11T07:08:58.984Z,61.00
2019-03-11T07:10:04.418Z,61.60
2019-03-11T07:11:08.986Z,61.70
2019-03-11T07:12:13.498Z,62.40
2019-03-11T07:13:17.970Z,62.30
2019-03-11T07:14:22.510Z,62.30
2019-03-11T07:15:26.969Z,62.80
2019-03-11T07:16:31.444Z,63.90
2019-03-11T07:17:35.921Z,64.20
2019-03-11T07:18:40.404Z,64.50
2019-03-11T07:19:44.964Z,64.90
2019-03-11T07:20:49.711Z,64.70
2019-03-11T07:21:54.171Z,66.30
2019-03-11T07:22:58.641Z,66.20
2019-03-11T07:24:03.107Z,65.90
2019-03-11T07:25:09.231Z,66.90
2019-03-11T07:26:13.684Z,66.70
2019-03-11T07:27:18.214Z,67.40
2019-03-11T07:28:22.732Z,66.80
2019-03-11T07:29:27.441Z,67.30
2019-03-11T07:30:31.973Z,68.00
2019-03-11T07:31:36.549Z,68.60
2019-03-11T07:32:41.092Z,68.40
2019-03-11T07:33:45.585Z,68.80
2019-03-11T07:34:50.367Z,70.90
2019-03-11T07:35:54.928Z,70.40
2019-03-11T07:36:59.455Z,71.20
2019-03-11T07:38:04.054Z,72.20
2019-03-11T07:39:08.692Z,72.70
2019-03-11T07:40:28.369Z,73.00
2019-03-11T07:41:23.222Z,73.50
2019-03-11T07:42:27.693Z,73.10
2019-03-11T07:43:32.166Z,74.10
2019-03-11T07:44:36.716Z,74.20
2019-03-11T07:45:41.270Z,74.40
2019-03-11T07:46:45.869Z,75.10
2019-03-11T07:47:50.394Z,75.40
2019-03-11T07:48:55.053Z,75.70
2019-03-11T07:51:03.642Z,76.00
2019-03-11T07:52:08.344Z,76.30
2019-03-11T07:53:13.095Z,76.70
2019-03-11T07:54:17.551Z,76.90
2019-03-11T07:55:22.078Z,77.00
2019-03-11T07:56:26.549Z,76.80
2019-03-11T07:57:31.104Z,77.60
2019-03-11T07:58:35.657Z,77.50
2019-03-11T07:59:40.259Z,78.10
2019-03-11T08:00:53.333Z,78.60
2019-03-11T08:01:51.122Z,79.50
2019-03-11T08:02:55.587Z,78.70
2019-03-11T08:04:00.146Z,78.70
2019-03-11T08:05:06.571Z,78.70
2019-03-11T08:06:18.361Z,79.70
2019-03-11T08:07:17.550Z,79.30
2019-03-11T08:08:22.022Z,80.10
2019-03-11T08:09:37.411Z,80.40
2019-03-11T08:10:32.660Z,80.80
2019-03-11T08:11:37.212Z,79.90
2019-03-11T08:12:41.726Z,79.90
2019-03-11T08:13:46.236Z,81.90
2019-03-11T08:14:50.716Z,81.40
2019-03-11T08:15:55.185Z,82.10
2019-03-11T08:16:59.765Z,81.90
2019-03-11T08:18:04.435Z,82.10
2019-03-11T08:19:08.974Z,81.60
2019-03-11T08:20:15.447Z,81.60
2019-03-11T08:21:20.196Z,82.00
2019-03-11T08:22:24.668Z,82.00
2019-03-11T08:23:29.234Z,81.60
2019-03-11T08:24:33.764Z,82.00
2019-03-11T08:25:38.234Z,81.20
2019-03-11T08:26:42.945Z,82.40
2019-03-11T08:27:47.421Z,82.20
2019-03-11T08:28:51.902Z,83.10
2019-03-11T08:29:56.374Z,82.00
2019-03-11T08:31:00.864Z,82.80
2019-03-11T08:32:05.321Z,81.70
2019-03-11T08:33:09.784Z,81.40
2019-03-11T08:34:14.254Z,83.40
2019-03-11T08:35:18.726Z,83.00
2019-03-11T08:36:23.212Z,82.30
2019-03-11T08:37:27.701Z,83.80
2019-03-11T08:38:32.146Z,82.90
2019-03-11T08:39:36.953Z,82.40
2019-03-11T08:40:42.988Z,82.90
2019-03-11T08:41:47.645Z,82.70
2019-03-11T08:42:52.248Z,82.70
2019-03-11T08:43:56.728Z,82.10
2019-03-11T08:45:01.227Z,82.80
2019-03-11T08:46:05.707Z,82.50
2019-03-11T08:47:10.325Z,82.70
2019-03-11T08:48:15.119Z,82.70
2019-03-11T08:49:19.689Z,83.40
2019-03-11T08:50:24.249Z,82.40
2019-03-11T08:51:28.901Z,83.10
2019-03-11T08:52:33.369Z,83.00
2019-03-11T08:53:37.846Z,82.10
2019-03-11T08:54:42.317Z,83.30
2019-03-11T08:55:46.802Z,83.20
2019-03-11T08:56:51.264Z,82.90
2019-03-11T08:57:55.758Z,82.40
2019-03-11T08:59:00.234Z,82.00
2019-03-11T09:00:19.176Z,82.40
2019-03-11T09:01:23.698Z,82.00
2019-03-11T09:02:28.166Z,83.30
2019-03-11T09:03:32.643Z,82.50
2019-03-11T09:04:37.108Z,82.40
2019-03-11T09:05:41.592Z,82.70
2019-03-11T09:06:46.047Z,82.50
2019-03-11T09:07:50.518Z,82.10
2019-03-11T09:08:55.013Z,82.30
2019-03-11T09:09:59.464Z,82.30
2019-03-11T09:11:04.019Z,81.80
2019-03-11T09:12:08.474Z,82.60
2019-03-11T09:13:12.946Z,82.40
2019-03-11T09:14:17.421Z,82.30
2019-03-11T09:15:22.119Z,82.00
2019-03-11T09:16:26.584Z,82.00
2019-03-11T09:17:31.049Z,82.60
2019-03-11T09:18:35.523Z,82.00
2019-03-11T09:19:40.010Z,81.90
2019-03-11T09:20:44.476Z,82.10
2019-03-11T09:21:48.958Z,82.10
2019-03-11T09:22:53.440Z,81.70
2019-03-11T09:23:57.906Z,81.50
2019-03-11T09:25:02.408Z,81.50
2019-03-11T09:26:06.943Z,81.10
2019-03-11T09:27:11.408Z,80.90
2019-03-11T09:28:15.910Z,80.70
2019-03-11T09:29:20.424Z,80.60
2019-03-11T09:30:25.127Z,80.50
2019-03-11T09:31:29.596Z,80.40
2019-03-11T09:32:34.130Z,80.30
2019-03-11T09:33:38.611Z,80.10
2019-03-11T09:34:43.070Z,80.10
2019-03-11T09:35:47.552Z,79.90
2019-03-11T09:36:52.015Z,80.00
2019-03-11T09:37:56.474Z,79.80
2019-03-11T09:39:00.957Z,79.80
2019-03-11T09:40:08.757Z,79.70
2019-03-11T09:41:13.235Z,79.70
2019-03-11T09:42:17.769Z,79.50
2019-03-11T09:43:22.262Z,79.50
2019-03-11T09:44:26.822Z,79.30
2019-03-11T09:45:31.321Z,79.30
2019-03-11T09:46:35.852Z,79.20
2019-03-11T09:47:40.344Z,79.20
2019-03-11T09:48:45.051Z,79.30
2019-03-11T09:49:49.547Z,79.40
2019-03-11T09:50:54.025Z,79.60
2019-03-11T09:51:58.691Z,79.70
2019-03-11T09:53:03.271Z,80.00
2019-03-11T09:54:07.830Z,79.90
2019-03-11T09:55:17.097Z,79.80
2019-03-11T09:56:21.559Z,79.70
2019-03-11T09:57:26.047Z,79.70
2019-03-11T09:58:30.528Z,79.70
2019-03-11T09:59:35.005Z,79.60
2019-03-11T10:00:39.540Z,79.90
2019-03-11T10:01:43.995Z,79.60
2019-03-11T10:02:52.720Z,79.40
2019-03-11T10:03:54.905Z,79.50
2019-03-11T10:04:59.420Z,79.60
2019-03-11T10:06:03.893Z,79.50
2019-03-11T10:07:08.438Z,79.50
2019-03-11T10:08:12.925Z,79.40
2019-03-11T10:09:17.436Z,79.60
2019-03-11T10:10:26.998Z,79.70
2019-03-11T10:11:52.410Z,79.80
2019-03-11T10:12:56.959Z,79.90
2019-03-11T10:14:01.433Z,80.10
2019-03-11T10:15:11.445Z,80.40
2019-03-11T10:16:15.991Z,80.40
2019-03-11T10:17:20.460Z,80.40
2019-03-11T10:18:24.931Z,80.60
2019-03-11T10:19:29.430Z,80.50
2019-03-11T10:20:33.885Z,81.30
2019-03-11T10:21:38.608Z,80.30
2019-03-11T10:22:43.412Z,80.20
2019-03-11T10:23:47.912Z,80.10
2019-03-11T10:24:52.412Z,80.00
2019-03-11T10:25:56.894Z,80.00
2019-03-11T10:27:01.376Z,79.80
2019-03-11T10:28:05.997Z,79.70
2019-03-11T10:29:10.533Z,79.50
2019-03-11T10:30:18.840Z,79.60
2019-03-11T10:31:23.313Z,79.70
2019-03-11T10:32:28.055Z,79.50
2019-03-11T10:33:32.521Z,79.50
2019-03-11T10:34:37.012Z,79.50
2019-03-11T10:35:41.556Z,79.70
2019-03-11T10:36:46.015Z,79.80
2019-03-11T10:37:50.624Z,79.80
2019-03-11T10:38:55.077Z,79.70
2019-03-11T10:39:59.541Z,79.40
2019-03-11T10:41:04.390Z,79.50
2019-03-11T10:42:08.863Z,79.40
2019-03-11T10:43:13.341Z,79.20
2019-03-11T10:44:17.815Z,79.20
2019-03-11T10:45:31.403Z,79.10
2019-03-11T10:46:28.762Z,79.00
2019-03-11T10:47:33.218Z,79.10
2019-03-11T10:48:37.740Z,78.90
2019-03-11T10:49:42.174Z,79.10
2019-03-11T10:50:46.665Z,79.00
2019-03-11T10:51:51.321Z,79.00
2019-03-11T10:52:55.798Z,78.80
2019-03-11T10:54:00.383Z,78.90
2019-03-11T10:55:07.817Z,79.00
2019-03-11T10:56:12.296Z,79.10
2019-03-11T10:57:16.828Z,79.30
2019-03-11T10:58:21.374Z,79.40
2019-03-11T10:59:25.916Z,79.40
2019-03-11T11:00:32.691Z,79.40
2019-03-11T11:01:37.202Z,79.30
2019-03-11T11:02:41.660Z,79.50
2019-03-11T11:03:46.140Z,79.40
2019-03-11T11:04:50.607Z,79.50
2019-03-11T11:05:55.061Z,80.40
2019-03-11T11:06:59.576Z,79.70
2019-03-11T11:08:04.112Z,79.70
2019-03-11T11:09:08.638Z,79.60
2019-03-11T11:10:19.522Z,79.60
2019-03-11T11:11:23.980Z,79.80
2019-03-11T11:12:28.508Z,79.80
2019-03-11T11:13:33.107Z,79.70
2019-03-11T11:14:37.599Z,79.70
2019-03-11T11:15:42.140Z,79.70
2019-03-11T11:16:46.655Z,79.90
2019-03-11T11:17:51.224Z,80.80
2019-03-11T11:18:55.752Z,81.50
2019-03-11T11:20:03.485Z,81.70
2019-03-11T11:21:06.720Z,81.70
2019-03-11T11:22:11.207Z,81.90
2019-03-11T11:23:15.664Z,81.90
2019-03-11T11:24:20.132Z,81.90
2019-03-11T11:25:25.455Z,81.70
2019-03-11T11:26:29.923Z,81.50
2019-03-11T11:27:36.526Z,81.40
2019-03-11T11:28:40.552Z,81.40
2019-03-11T11:29:45.025Z,81.80
2019-03-11T11:30:49.525Z,83.60
2019-03-11T11:31:54.005Z,83.10
2019-03-11T11:32:58.461Z,83.20
2019-03-11T11:34:02.925Z,83.50
2019-03-11T11:35:08.336Z,83.40
2019-03-11T11:36:12.835Z,83.00
2019-03-11T11:37:17.324Z,83.10
2019-03-11T11:38:21.838Z,82.70
2019-03-11T11:39:26.314Z,83.00
2019-03-11T11:40:31.408Z,82.40
2019-03-11T11:41:35.901Z,81.70
2019-03-11T11:42:40.443Z,79.90
2019-03-11T11:43:44.895Z,76.80
2019-03-11T11:44:49.605Z,78.70
2019-03-11T11:45:54.064Z,75.00
2019-03-11T11:46:58.548Z,74.60
2019-03-11T11:48:03.010Z,73.10
2019-03-11T11:49:07.561Z,73.20
2019-03-11T11:50:22.965Z,72.50
2019-03-11T11:51:27.534Z,69.50
2019-03-11T11:52:32.131Z,67.50
2019-03-11T11:53:36.616Z,66.40
2019-03-11T11:54:41.097Z,66.50
2019-03-11T11:55:45.560Z,67.00
2019-03-11T11:56:50.059Z,66.30
2019-03-11T11:57:54.697Z,64.30
2019-03-11T11:58:59.168Z,63.80
2019-03-11T12:00:05.181Z,64.10
2019-03-11T12:01:09.715Z,63.40
2019-03-11T12:02:14.202Z,63.50
2019-03-11T12:03:18.683Z,63.50
2019-03-11T12:04:23.163Z,62.80
2019-03-11T12:05:27.714Z,63.70
2019-03-11T12:06:32.172Z,64.10
2019-03-11T12:07:36.704Z,63.40
2019-03-11T12:08:41.711Z,63.00
2019-03-11T12:09:46.192Z,63.70
2019-03-11T12:10:50.665Z,63.90
2019-03-11T12:11:55.136Z,64.10
2019-03-11T12:12:59.769Z,64.70
2019-03-11T12:14:04.298Z,65.50
2019-03-11T12:15:10.811Z,64.80
2019-03-11T12:16:15.293Z,65.00
2019-03-11T12:17:19.764Z,64.20
2019-03-11T12:18:24.264Z,64.40
2019-03-11T12:19:28.720Z,63.70
2019-03-11T12:20:33.372Z,64.60
2019-03-11T12:21:37.826Z,64.60
2019-03-11T12:22:42.918Z,64.50
2019-03-11T12:23:47.552Z,64.30
2019-03-11T12:24:52.029Z,63.00
2019-03-11T12:25:56.490Z,62.30
2019-03-11T12:27:01.210Z,62.90
2019-03-11T12:28:05.677Z,63.30
2019-03-11T12:29:10.377Z,63.80
2019-03-11T12:30:23.459Z,64.00
2019-03-11T12:31:27.935Z,64.20
2019-03-11T12:32:32.405Z,63.90
2019-03-11T12:33:36.872Z,63.90
2019-03-11T12:34:41.407Z,64.40
2019-03-11T12:35:45.919Z,64.10
2019-03-11T12:36:50.394Z,63.80
2019-03-11T12:37:54.972Z,64.00
2019-03-11T12:38:59.457Z,63.40
2019-03-11T12:40:05.252Z,62.40
2019-03-11T12:41:09.745Z,62.10
2019-03-11T12:42:14.242Z,60.80
2019-03-11T12:43:18.760Z,61.30
2019-03-11T12:44:23.234Z,61.70
2019-03-11T12:45:28.612Z,62.50
2019-03-11T12:46:33.151Z,61.90
2019-03-11T12:47:37.656Z,62.60
2019-03-11T12:48:42.113Z,62.00
2019-03-11T12:49:46.574Z,61.50
2019-03-11T12:50:51.045Z,62.60
2019-03-11T12:51:55.520Z,63.00
2019-03-11T12:53:00.009Z,62.40
2019-03-11T12:54:04.609Z,62.10
2019-03-11T12:55:09.253Z,62.30
2019-03-11T12:56:13.723Z,62.60
2019-03-11T12:57:18.180Z,63.10
2019-03-11T12:58:22.680Z,63.20
2019-03-11T12:59:27.174Z,62.30
2019-03-11T13:00:31.809Z,62.40
2019-03-11T13:01:36.281Z,61.00
2019-03-11T13:02:40.771Z,61.70
2019-03-11T13:03:45.307Z,61.50
2019-03-11T13:04:49.818Z,60.90
2019-03-11T13:05:54.360Z,60.00
2019-03-11T13:06:58.826Z,60.20
2019-03-11T13:08:03.295Z,59.90
2019-03-11T13:09:07.794Z,59.30
2019-03-11T13:10:17.852Z,58.60
2019-03-11T13:11:22.311Z,59.10
2019-03-11T13:12:26.874Z,59.00
2019-03-11T13:13:31.410Z,58.50
2019-03-11T13:14:35.896Z,58.10
2019-03-11T13:15:40.614Z,57.80
2019-03-11T13:16:45.070Z,56.20
2019-03-11T13:17:49.702Z,57.20
2019-03-11T13:18:54.358Z,57.40
2019-03-11T13:19:58.848Z,57.00
2019-03-11T13:21:12.117Z,56.70
2019-03-11T13:22:16.629Z,56.90
2019-03-11T13:23:21.099Z,57.50
2019-03-11T13:24:25.574Z,57.70
2019-03-11T13:25:30.115Z,56.80
2019-03-11T13:26:34.606Z,56.50
2019-03-11T13:27:39.061Z,56.80
2019-03-11T13:28:43.522Z,56.80
2019-03-11T13:29:48.012Z,56.50
2019-03-11T13:30:52.472Z,56.50
2019-03-11T13:31:57.006Z,56.70
2019-03-11T13:33:01.553Z,57.10
2019-03-11T13:34:06.470Z,57.60
2019-03-11T13:35:11.898Z,58.10
2019-03-11T13:36:16.363Z,58.50
2019-03-11T13:37:20.935Z,58.00
2019-03-11T13:38:25.596Z,58.00
2019-03-11T13:39:30.258Z,58.50
2019-03-11T13:40:34.820Z,58.30
2019-03-11T13:41:39.347Z,58.50
2019-03-11T13:42:43.802Z,58.80
2019-03-11T13:43:48.813Z,58.50
2019-03-11T13:44:53.264Z,58.70
2019-03-11T13:45:57.768Z,57.70
2019-03-11T13:47:02.215Z,57.20
2019-03-11T13:48:06.683Z,56.50
2019-03-11T13:49:11.146Z,56.40
2019-03-11T13:50:16.939Z,56.60
2019-03-11T13:51:21.437Z,56.60
2019-03-11T13:52:25.905Z,56.60
2019-03-11T13:53:30.376Z,56.40
2019-03-11T13:54:34.906Z,56.70
2019-03-11T13:55:39.600Z,55.90
2019-03-11T13:56:44.082Z,56.20